Carlisle, MA

6:19 PM EDT on June 02, 2015 (GMT -0400)
KMACARLI2 | | Change Station
CLOSE
Current Station
Personal Weather Station
Location: Carlisle, MA
Elevation: 200 ft
Nearby Weather Stations

Elev 200 ft 42.52 °N, 71.32 °W | Updated 7 hours ago

Cloudy
Cloudy
52 °F
Feels Like 52 °F
N
8
Wind Variable Wind from NE
Gusts 13 mph

Today
High -- | Low -- °F
--% Chance of Precip.
Yesterday
High -- | Low -- °F
Precip. -- in
5:10 AM 8:16 PM
Full, 100% visible
Pressure 30.21 in
Visibility 10.0 miles
Clouds Overcast 900 ft
Dew Point 43 °F
Humidity 73%
Rainfall 0.95 in
Snow Depth Not available.
UV 1 out of 12
Pollen .90 out of 12
Air Quality Not available.
Flu Activity Local Activity
METAR KBED 022156Z 04007KT 10SM OVC009 08/07 A3016 RMK AO2 SLP228 T00830072

More Conditions Fewer Conditions

Pressure 30.21 in
Visibility 10.0 miles
Clouds Overcast 900 ft
Dew Point 43 °F
Humidity 73%
Rainfall 0.95 in
Snow Depth Not available.
UV 1 out of 12
Pollen .90 out of 12
Air Quality Not available.
Flu Activity Local Activity
METAR KBED 022156Z 04007KT 10SM OVC009 08/07 A3016 RMK AO2 SLP228 T00830072

More Conditions Fewer Conditions

10-Day Weather Forecast

×

Almanac

Astronomy

Jun. 02, 2015 Rise Set
Actual Time
Civil Twilight
Nautical Twilight
Astronomical Twilight
Moon
Length of Visible Light
Length of Day
Tomorrow will be .
, % of the Moon is Illuminated

Today's Extremes

State Highs State Lows

Community

WunderPhotos

Upload Photos

1,826,039 photos uploaded!

WunderBlogs® & News

Nearby

Air Quality

  Air Quality AQ Index Pollutant
Not available.

Snow Depth

Station Depth Elevation

Earthquake Activity

City Distance Mag. Time & Date
Minimum magnitude displayed is 2.5.

Coastal Water Temperatures

Place Temperature

Stations

Nearby Weather Stations

Station Location Temp. Windchill Dew Point Humidity Wind Precip. Elev Updated Type